sensor_id;sensor_type;location;lat;lon;timestamp;temperature;humidity
364;DHT22;173;48.718;9.274;2022-12-15T00:01:02;-0.10;99.50
364;DHT22;173;48.718;9.274;2022-12-15T00:03:52;-0.10;99.50
364;DHT22;173;48.718;9.274;2022-12-15T00:06:41;-0.20;99.50
364;DHT22;173;48.718;9.274;2022-12-15T00:09:31;-0.20;99.50
364;DHT22;173;48.718;9.274;2022-12-15T00:12:21;-0.10;99.50
364;DHT22;173;48.718;9.274;2022-12-15T00:15:11;-0.10;99.50
364;DHT22;173;48.718;9.274;2022-12-15T00:18:05;-0.10;99.50
364;DHT22;173;48.718;9.274;2022-12-15T00:20:57;-0.20;99.50
364;DHT22;173;48.718;9.274;2022-12-15T00:23:47;-0.30;99.50
364;DHT22;173;48.718;9.274;2022-12-15T00:26:36;-0.40;99.50
364;DHT22;173;48.718;9.274;2022-12-15T00:29:26;-0.40;99.50
364;DHT22;173;48.718;9.274;2022-12-15T00:32:16;-0.30;99.50
364;DHT22;173;48.718;9.274;2022-12-15T00:35:06;-0.40;99.50
364;DHT22;173;48.718;9.274;2022-12-15T00:37:56;-0.40;99.50
364;DHT22;173;48.718;9.274;2022-12-15T00:40:47;-0.30;99.50
364;DHT22;173;48.718;9.274;2022-12-15T00:43:21;-0.30;99.50
364;DHT22;173;48.718;9.274;2022-12-15T00:45:55;-0.30;99.50
364;DHT22;173;48.718;9.274;2022-12-15T00:48:46;-0.20;99.50
364;DHT22;173;48.718;9.274;2022-12-15T00:51:19;-0.10;99.50
364;DHT22;173;48.718;9.274;2022-12-15T00:54:09;-0.10;99.50
364;DHT22;173;48.718;9.274;2022-12-15T00:56:58;0.00;99.50
364;DHT22;173;48.718;9.274;2022-12-15T00:59:46;0.00;99.50
364;DHT22;173;48.718;9.274;2022-12-15T01:02:36;0.00;99.50
364;DHT22;173;48.718;9.274;2022-12-15T01:05:26;0.00;99.50
364;DHT22;173;48.718;9.274;2022-12-15T01:08:15;0.00;99.50
364;DHT22;173;48.718;9.274;2022-12-15T01:11:05;0.00;99.50
364;DHT22;173;48.718;9.274;2022-12-15T01:13:55;0.00;99.50
364;DHT22;173;48.718;9.274;2022-12-15T01:16:45;-0.10;99.50
364;DHT22;173;48.718;9.274;2022-12-15T01:19:34;0.00;99.50
364;DHT22;173;48.718;9.274;2022-12-15T01:22:24;0.00;99.50
364;DHT22;173;48.718;9.274;2022-12-15T01:24:56;-0.10;99.50
364;DHT22;173;48.718;9.274;2022-12-15T01:27:28;-0.20;99.50
364;DHT22;173;48.718;9.274;2022-12-15T01:30:03;-0.10;99.50
364;DHT22;173;48.718;9.274;2022-12-15T01:32:38;-0.10;99.50
364;DHT22;173;48.718;9.274;2022-12-15T01:35:11;0.00;99.50
364;DHT22;173;48.718;9.274;2022-12-15T01:38:35;0.00;99.50
364;DHT22;173;48.718;9.274;2022-12-15T01:41:11;-0.10;99.50
364;DHT22;173;48.718;9.274;2022-12-15T01:43:43;-0.10;99.50
364;DHT22;173;48.718;9.274;2022-12-15T01:46:19;-0.10;99.50
364;DHT22;173;48.718;9.274;2022-12-15T01:48:55;-0.20;99.50
364;DHT22;173;48.718;9.274;2022-12-15T01:51:39;-0.30;99.50
364;DHT22;173;48.718;9.274;2022-12-15T01:54:18;-0.30;99.50
364;DHT22;173;48.718;9.274;2022-12-15T01:56:55;-0.30;99.50
364;DHT22;173;48.718;9.274;2022-12-15T01:59:34;-0.20;99.50
364;DHT22;173;48.718;9.274;2022-12-15T02:02:13;-0.10;99.50
364;DHT22;173;48.718;9.274;2022-12-15T02:04:47;-0.20;99.50
364;DHT22;173;48.718;9.274;2022-12-15T02:07:20;-0.20;99.50
364;DHT22;173;48.718;9.274;2022-12-15T02:09:57;-0.30;99.50
364;DHT22;173;48.718;9.274;2022-12-15T02:21:16;-0.30;99.50
364;DHT22;173;48.718;9.274;2022-12-15T02:27:08;-0.30;99.50
364;DHT22;173;48.718;9.274;2022-12-15T02:30:10;-0.50;99.50
364;DHT22;173;48.718;9.274;2022-12-15T02:33:22;-0.50;99.50
364;DHT22;173;48.718;9.274;2022-12-15T02:36:14;-0.40;99.50
364;DHT22;173;48.718;9.274;2022-12-15T02:38:45;-0.40;99.50
364;DHT22;173;48.718;9.274;2022-12-15T02:41:35;-0.30;99.50
364;DHT22;173;48.718;9.274;2022-12-15T02:47:16;-0.40;99.50
364;DHT22;173;48.718;9.274;2022-12-15T02:55:59;-0.40;99.50
364;DHT22;173;48.718;9.274;2022-12-15T03:01:55;-0.50;99.50
364;DHT22;173;48.718;9.274;2022-12-15T03:04:30;-0.40;99.50
364;DHT22;173;48.718;9.274;2022-12-15T03:07:07;-0.40;99.50
364;DHT22;173;48.718;9.274;2022-12-15T03:09:41;-0.40;99.50
364;DHT22;173;48.718;9.274;2022-12-15T03:12:15;-0.50;99.50
364;DHT22;173;48.718;9.274;2022-12-15T03:14:47;-0.50;99.50
364;DHT22;173;48.718;9.274;2022-12-15T03:17:19;-0.30;99.50
364;DHT22;173;48.718;9.274;2022-12-15T03:19:53;-0.30;99.50
364;DHT22;173;48.718;9.274;2022-12-15T03:22:27;-0.20;99.50
364;DHT22;173;48.718;9.274;2022-12-15T03:25:01;-0.30;99.50
364;DHT22;173;48.718;9.274;2022-12-15T03:27:36;-0.40;99.50
364;DHT22;173;48.718;9.274;2022-12-15T03:30:10;-0.40;99.50
364;DHT22;173;48.718;9.274;2022-12-15T03:32:44;-0.40;99.50
364;DHT22;173;48.718;9.274;2022-12-15T03:35:19;-0.30;99.50
364;DHT22;173;48.718;9.274;2022-12-15T03:38:14;-0.30;99.50
364;DHT22;173;48.718;9.274;2022-12-15T03:40:46;-0.40;99.50
364;DHT22;173;48.718;9.274;2022-12-15T03:43:40;-0.40;99.50
364;DHT22;173;48.718;9.274;2022-12-15T03:46:14;-0.30;99.50
364;DHT22;173;48.718;9.274;2022-12-15T03:48:46;-0.40;99.50
364;DHT22;173;48.718;9.274;2022-12-15T03:51:19;-0.30;99.50
364;DHT22;173;48.718;9.274;2022-12-15T03:53:51;-0.40;99.50
364;DHT22;173;48.718;9.274;2022-12-15T03:56:25;-0.30;99.50
364;DHT22;173;48.718;9.274;2022-12-15T03:58:57;-0.40;99.50
364;DHT22;173;48.718;9.274;2022-12-15T04:01:32;-0.50;99.50
364;DHT22;173;48.718;9.274;2022-12-15T04:04:05;-0.30;99.50
364;DHT22;173;48.718;9.274;2022-12-15T04:06:37;-0.30;99.50
364;DHT22;173;48.718;9.274;2022-12-15T04:09:09;-0.30;99.50
364;DHT22;173;48.718;9.274;2022-12-15T04:13:44;-0.20;99.50
364;DHT22;173;48.718;9.274;2022-12-15T04:16:19;-0.20;99.50
364;DHT22;173;48.718;9.274;2022-12-15T04:18:53;-0.30;99.50
364;DHT22;173;48.718;9.274;2022-12-15T04:21:30;-0.30;99.50
364;DHT22;173;48.718;9.274;2022-12-15T04:24:02;-0.30;99.50
364;DHT22;173;48.718;9.274;2022-12-15T04:26:52;-0.40;99.50
364;DHT22;173;48.718;9.274;2022-12-15T04:29:40;-0.40;99.50
364;DHT22;173;48.718;9.274;2022-12-15T04:32:30;-0.40;99.50
364;DHT22;173;48.718;9.274;2022-12-15T04:35:20;-0.40;99.50
364;DHT22;173;48.718;9.274;2022-12-15T04:38:10;-0.50;99.50
364;DHT22;173;48.718;9.274;2022-12-15T04:41:00;-0.50;99.50
364;DHT22;173;48.718;9.274;2022-12-15T04:43:50;-0.60;99.50
364;DHT22;173;48.718;9.274;2022-12-15T04:46:40;-0.60;99.50
364;DHT22;173;48.718;9.274;2022-12-15T04:49:30;-0.50;99.50
364;DHT22;173;48.718;9.274;2022-12-15T04:52:20;-0.50;99.50
364;DHT22;173;48.718;9.274;2022-12-15T04:55:09;-0.40;99.50
364;DHT22;173;48.718;9.274;2022-12-15T04:58:03;-0.40;99.50
364;DHT22;173;48.718;9.274;2022-12-15T05:00:55;-0.50;99.50
364;DHT22;173;48.718;9.274;2022-12-15T05:03:45;-0.50;99.50
364;DHT22;173;48.718;9.274;2022-12-15T05:06:34;-0.60;99.50
364;DHT22;173;48.718;9.274;2022-12-15T05:09:22;-0.60;99.50
364;DHT22;173;48.718;9.274;2022-12-15T05:12:06;-0.60;99.50
364;DHT22;173;48.718;9.274;2022-12-15T05:14:56;-0.60;99.50
364;DHT22;173;48.718;9.274;2022-12-15T05:17:46;-0.60;99.50
364;DHT22;173;48.718;9.274;2022-12-15T05:20:35;-0.60;99.50
364;DHT22;173;48.718;9.274;2022-12-15T05:23:25;-0.60;99.50
364;DHT22;173;48.718;9.274;2022-12-15T05:26:15;-0.50;99.50
364;DHT22;173;48.718;9.274;2022-12-15T05:31:51;-0.30;99.50
364;DHT22;173;48.718;9.274;2022-12-15T05:34:27;-0.20;99.50
364;DHT22;173;48.718;9.274;2022-12-15T05:37:01;-0.20;99.50
364;DHT22;173;48.718;9.274;2022-12-15T05:39:34;-0.20;99.50
364;DHT22;173;48.718;9.274;2022-12-15T05:42:06;-0.20;99.50
364;DHT22;173;48.718;9.274;2022-12-15T05:44:38;-0.20;99.50
364;DHT22;173;48.718;9.274;2022-12-15T05:47:11;-0.20;99.50
364;DHT22;173;48.718;9.274;2022-12-15T05:49:43;-0.20;99.50
364;DHT22;173;48.718;9.274;2022-12-15T05:52:17;-0.30;99.50
364;DHT22;173;48.718;9.274;2022-12-15T05:54:49;-0.30;99.50
364;DHT22;173;48.718;9.274;2022-12-15T05:57:21;-0.30;99.50
364;DHT22;173;48.718;9.274;2022-12-15T05:59:53;-0.30;99.50
364;DHT22;173;48.718;9.274;2022-12-15T06:02:23;-0.30;99.50
364;DHT22;173;48.718;9.274;2022-12-15T06:04:57;-0.20;99.50
364;DHT22;173;48.718;9.274;2022-12-15T06:07:31;-0.20;99.50
364;DHT22;173;48.718;9.274;2022-12-15T06:10:04;-0.20;99.50
364;DHT22;173;48.718;9.274;2022-12-15T06:12:39;-0.20;99.50
364;DHT22;173;48.718;9.274;2022-12-15T06:15:13;-0.20;99.50
364;DHT22;173;48.718;9.274;2022-12-15T06:17:47;-0.10;99.50
364;DHT22;173;48.718;9.274;2022-12-15T06:20:21;-0.10;99.50
364;DHT22;173;48.718;9.274;2022-12-15T06:22:55;-0.20;99.50
364;DHT22;173;48.718;9.274;2022-12-15T06:25:30;-0.20;99.50
364;DHT22;173;48.718;9.274;2022-12-15T06:28:04;-0.20;99.50
364;DHT22;173;48.718;9.274;2022-12-15T06:30:36;-0.30;99.50
364;DHT22;173;48.718;9.274;2022-12-15T06:33:10;-0.30;99.50
364;DHT22;173;48.718;9.274;2022-12-15T06:35:44;-0.30;99.50
364;DHT22;173;48.718;9.274;2022-12-15T06:38:18;-0.30;99.50
364;DHT22;173;48.718;9.274;2022-12-15T06:44:42;-0.30;99.50
364;DHT22;173;48.718;9.274;2022-12-15T06:47:15;-0.30;99.50
364;DHT22;173;48.718;9.274;2022-12-15T06:49:49;-0.20;99.50
364;DHT22;173;48.718;9.274;2022-12-15T06:52:23;-0.10;99.50
364;DHT22;173;48.718;9.274;2022-12-15T06:54:56;-0.20;99.50
364;DHT22;173;48.718;9.274;2022-12-15T06:57:28;-0.20;99.50
364;DHT22;173;48.718;9.274;2022-12-15T07:00:03;-0.10;99.50
364;DHT22;173;48.718;9.274;2022-12-15T07:02:36;-0.10;99.50
364;DHT22;173;48.718;9.274;2022-12-15T07:05:08;-0.20;99.50
364;DHT22;173;48.718;9.274;2022-12-15T07:07:42;-0.20;99.50
364;DHT22;173;48.718;9.274;2022-12-15T07:10:22;-0.20;99.50
364;DHT22;173;48.718;9.274;2022-12-15T07:13:06;-0.20;99.50
364;DHT22;173;48.718;9.274;2022-12-15T07:15:41;-0.10;99.50
364;DHT22;173;48.718;9.274;2022-12-15T07:20:46;0.00;99.50
364;DHT22;173;48.718;9.274;2022-12-15T07:23:20;0.00;99.50
364;DHT22;173;48.718;9.274;2022-12-15T07:25:54;0.00;99.50
364;DHT22;173;48.718;9.274;2022-12-15T07:28:28;-0.10;99.50
364;DHT22;173;48.718;9.274;2022-12-15T07:31:04;-0.10;99.50
364;DHT22;173;48.718;9.274;2022-12-15T07:33:39;-0.10;99.50
364;DHT22;173;48.718;9.274;2022-12-15T07:36:13;-0.10;99.50
364;DHT22;173;48.718;9.274;2022-12-15T07:38:45;0.00;99.50
364;DHT22;173;48.718;9.274;2022-12-15T07:41:20;0.00;99.50
364;DHT22;173;48.718;9.274;2022-12-15T07:43:54;0.10;99.50
364;DHT22;173;48.718;9.274;2022-12-15T07:46:29;0.10;99.50
364;DHT22;173;48.718;9.274;2022-12-15T07:49:03;0.00;99.50
364;DHT22;173;48.718;9.274;2022-12-15T07:51:36;0.00;99.50
364;DHT22;173;48.718;9.274;2022-12-15T07:54:11;0.10;99.50
364;DHT22;173;48.718;9.274;2022-12-15T07:56:44;0.10;99.50
364;DHT22;173;48.718;9.274;2022-12-15T07:59:15;0.10;99.50
364;DHT22;173;48.718;9.274;2022-12-15T08:01:50;0.20;99.50
364;DHT22;173;48.718;9.274;2022-12-15T08:04:24;0.30;99.50
364;DHT22;173;48.718;9.274;2022-12-15T08:06:58;0.30;99.50
364;DHT22;173;48.718;9.274;2022-12-15T08:10:15;0.30;99.50
364;DHT22;173;48.718;9.274;2022-12-15T08:12:46;0.30;99.50
364;DHT22;173;48.718;9.274;2022-12-15T08:15:18;0.40;99.50
364;DHT22;173;48.718;9.274;2022-12-15T08:17:50;0.40;99.50
364;DHT22;173;48.718;9.274;2022-12-15T08:20:22;0.50;99.50
364;DHT22;173;48.718;9.274;2022-12-15T08:22:56;0.50;99.50
364;DHT22;173;48.718;9.274;2022-12-15T08:25:28;0.60;99.50
364;DHT22;173;48.718;9.274;2022-12-15T08:28:00;0.70;99.50
364;DHT22;173;48.718;9.274;2022-12-15T08:30:33;0.80;99.50
364;DHT22;173;48.718;9.274;2022-12-15T08:33:05;0.80;99.50
364;DHT22;173;48.718;9.274;2022-12-15T08:35:37;0.80;99.50
364;DHT22;173;48.718;9.274;2022-12-15T08:38:10;0.70;99.50
364;DHT22;173;48.718;9.274;2022-12-15T08:40:42;0.80;99.50
364;DHT22;173;48.718;9.274;2022-12-15T08:43:14;0.70;99.50
364;DHT22;173;48.718;9.274;2022-12-15T08:45:46;0.80;99.50
364;DHT22;173;48.718;9.274;2022-12-15T08:48:18;0.70;99.50
364;DHT22;173;48.718;9.274;2022-12-15T08:50:50;0.70;99.50
364;DHT22;173;48.718;9.274;2022-12-15T08:53:24;0.60;99.50
364;DHT22;173;48.718;9.274;2022-12-15T08:56:08;0.70;99.50
364;DHT22;173;48.718;9.274;2022-12-15T08:58:32;0.70;99.50
364;DHT22;173;48.718;9.274;2022-12-15T09:01:39;0.80;99.50
364;DHT22;173;48.718;9.274;2022-12-15T09:04:11;0.90;99.50
364;DHT22;173;48.718;9.274;2022-12-15T09:06:44;0.90;99.50
364;DHT22;173;48.718;9.274;2022-12-15T09:09:16;1.00;99.50
364;DHT22;173;48.718;9.274;2022-12-15T09:11:49;1.10;99.50
364;DHT22;173;48.718;9.274;2022-12-15T09:14:21;1.30;99.50
364;DHT22;173;48.718;9.274;2022-12-15T09:16:53;1.40;99.50
364;DHT22;173;48.718;9.274;2022-12-15T09:19:25;1.60;99.50
364;DHT22;173;48.718;9.274;2022-12-15T09:21:55;1.70;99.50
364;DHT22;173;48.718;9.274;2022-12-15T09:24:27;1.70;99.50
364;DHT22;173;48.718;9.274;2022-12-15T09:26:59;1.70;99.00
364;DHT22;173;48.718;9.274;2022-12-15T09:29:32;1.70;98.80
364;DHT22;173;48.718;9.274;2022-12-15T09:32:04;1.80;98.70
364;DHT22;173;48.718;9.274;2022-12-15T09:34:36;1.70;98.70
364;DHT22;173;48.718;9.274;2022-12-15T09:37:08;1.70;98.50
364;DHT22;173;48.718;9.274;2022-12-15T09:39:40;1.80;98.50
364;DHT22;173;48.718;9.274;2022-12-15T09:42:24;1.70;97.90
364;DHT22;173;48.718;9.274;2022-12-15T09:45:02;1.90;98.30
364;DHT22;173;48.718;9.274;2022-12-15T09:47:35;2.00;98.00
364;DHT22;173;48.718;9.274;2022-12-15T09:50:18;2.10;98.30
364;DHT22;173;48.718;9.274;2022-12-15T09:53:00;2.00;96.90
364;DHT22;173;48.718;9.274;2022-12-15T09:55:33;1.80;97.00
364;DHT22;173;48.718;9.274;2022-12-15T10:01:30;1.80;98.00
364;DHT22;173;48.718;9.274;2022-12-15T10:07:19;1.90;97.20
364;DHT22;173;48.718;9.274;2022-12-15T10:09:52;2.00;97.50
364;DHT22;173;48.718;9.274;2022-12-15T10:12:31;2.00;97.90
364;DHT22;173;48.718;9.274;2022-12-15T10:15:25;2.00;97.90
364;DHT22;173;48.718;9.274;2022-12-15T10:18:05;2.00;98.00
364;DHT22;173;48.718;9.274;2022-12-15T10:20:34;2.00;97.50
364;DHT22;173;48.718;9.274;2022-12-15T10:23:15;2.00;97.30
364;DHT22;173;48.718;9.274;2022-12-15T10:25:58;1.80;96.30
364;DHT22;173;48.718;9.274;2022-12-15T10:29:03;1.70;97.30
364;DHT22;173;48.718;9.274;2022-12-15T10:32:01;1.80;98.10
364;DHT22;173;48.718;9.274;2022-12-15T10:34:37;1.60;98.00
364;DHT22;173;48.718;9.274;2022-12-15T10:37:16;1.60;98.20
364;DHT22;173;48.718;9.274;2022-12-15T10:39:51;1.50;97.90
364;DHT22;173;48.718;9.274;2022-12-15T10:42:25;1.50;99.00
364;DHT22;173;48.718;9.274;2022-12-15T10:44:58;1.60;99.30
364;DHT22;173;48.718;9.274;2022-12-15T10:47:32;1.80;99.50
364;DHT22;173;48.718;9.274;2022-12-15T10:50:21;1.70;98.90
364;DHT22;173;48.718;9.274;2022-12-15T10:52:52;1.80;99.00
364;DHT22;173;48.718;9.274;2022-12-15T10:55:36;2.00;99.00
364;DHT22;173;48.718;9.274;2022-12-15T10:58:21;2.10;98.80
364;DHT22;173;48.718;9.274;2022-12-15T11:01:11;2.00;98.00
364;DHT22;173;48.718;9.274;2022-12-15T11:03:45;2.00;98.10
364;DHT22;173;48.718;9.274;2022-12-15T11:06:33;2.10;98.20
364;DHT22;173;48.718;9.274;2022-12-15T11:12:15;1.90;97.60
364;DHT22;173;48.718;9.274;2022-12-15T11:21:00;2.00;98.60
364;DHT22;173;48.718;9.274;2022-12-15T11:23:52;2.00;98.30
364;DHT22;173;48.718;9.274;2022-12-15T11:26:47;2.10;97.60
364;DHT22;173;48.718;9.274;2022-12-15T11:32:24;1.90;98.20
364;DHT22;173;48.718;9.274;2022-12-15T11:34:58;2.00;98.00
364;DHT22;173;48.718;9.274;2022-12-15T11:37:32;2.10;98.20
364;DHT22;173;48.718;9.274;2022-12-15T11:40:46;2.20;98.30
364;DHT22;173;48.718;9.274;2022-12-15T11:46:19;2.30;96.80
364;DHT22;173;48.718;9.274;2022-12-15T11:52:05;2.50;97.00
364;DHT22;173;48.718;9.274;2022-12-15T11:57:53;2.40;96.60
364;DHT22;173;48.718;9.274;2022-12-15T12:00:36;2.50;97.20
364;DHT22;173;48.718;9.274;2022-12-15T12:03:39;2.10;97.00
364;DHT22;173;48.718;9.274;2022-12-15T12:12:24;2.20;98.00
364;DHT22;173;48.718;9.274;2022-12-15T12:15:23;2.30;98.50
364;DHT22;173;48.718;9.274;2022-12-15T12:20:46;2.40;97.70
364;DHT22;173;48.718;9.274;2022-12-15T12:26:37;2.50;98.10
364;DHT22;173;48.718;9.274;2022-12-15T12:29:19;2.60;97.80
364;DHT22;173;48.718;9.274;2022-12-15T12:32:26;2.70;97.60
364;DHT22;173;48.718;9.274;2022-12-15T12:38:01;2.60;96.20
364;DHT22;173;48.718;9.274;2022-12-15T12:41:07;2.50;97.10
364;DHT22;173;48.718;9.274;2022-12-15T12:43:51;2.40;97.10
364;DHT22;173;48.718;9.274;2022-12-15T12:46:30;2.40;97.90
364;DHT22;173;48.718;9.274;2022-12-15T12:49:21;2.60;98.10
364;DHT22;173;48.718;9.274;2022-12-15T12:52:04;2.60;97.20
364;DHT22;173;48.718;9.274;2022-12-15T12:56:42;2.60;97.60
364;DHT22;173;48.718;9.274;2022-12-15T13:05:01;2.90;95.50
364;DHT22;173;48.718;9.274;2022-12-15T13:10:42;2.90;96.60
364;DHT22;173;48.718;9.274;2022-12-15T13:13:36;2.80;96.40
364;DHT22;173;48.718;9.274;2022-12-15T13:16:27;2.70;96.70
364;DHT22;173;48.718;9.274;2022-12-15T13:19:09;2.40;96.80
364;DHT22;173;48.718;9.274;2022-12-15T13:21:50;2.10;97.60
364;DHT22;173;48.718;9.274;2022-12-15T13:24:45;2.10;98.30
364;DHT22;173;48.718;9.274;2022-12-15T13:27:19;2.10;99.10
364;DHT22;173;48.718;9.274;2022-12-15T13:32:50;2.10;99.30
364;DHT22;173;48.718;9.274;2022-12-15T13:35:28;2.20;99.00
364;DHT22;173;48.718;9.274;2022-12-15T13:38:01;2.20;99.00
364;DHT22;173;48.718;9.274;2022-12-15T13:40:58;2.30;99.00
364;DHT22;173;48.718;9.274;2022-12-15T13:46:09;2.00;98.90
364;DHT22;173;48.718;9.274;2022-12-15T13:48:50;2.00;99.50
364;DHT22;173;48.718;9.274;2022-12-15T13:51:30;2.20;99.50
364;DHT22;173;48.718;9.274;2022-12-15T13:54:15;2.10;99.40
364;DHT22;173;48.718;9.274;2022-12-15T13:57:08;2.10;99.50
364;DHT22;173;48.718;9.274;2022-12-15T13:59:44;2.20;99.50
364;DHT22;173;48.718;9.274;2022-12-15T14:02:29;2.20;99.50
364;DHT22;173;48.718;9.274;2022-12-15T14:05:20;2.20;99.50
364;DHT22;173;48.718;9.274;2022-12-15T14:07:56;2.30;99.50
364;DHT22;173;48.718;9.274;2022-12-15T14:10:42;2.20;98.90
364;DHT22;173;48.718;9.274;2022-12-15T14:13:28;2.10;99.30
364;DHT22;173;48.718;9.274;2022-12-15T14:16:06;2.10;99.50
364;DHT22;173;48.718;9.274;2022-12-15T14:19:01;2.10;99.50
364;DHT22;173;48.718;9.274;2022-12-15T14:21:37;2.00;99.50
364;DHT22;173;48.718;9.274;2022-12-15T14:24:41;2.00;99.50
364;DHT22;173;48.718;9.274;2022-12-15T14:27:00;2.00;99.50
364;DHT22;173;48.718;9.274;2022-12-15T14:29:34;2.00;99.50
364;DHT22;173;48.718;9.274;2022-12-15T14:32:07;2.00;99.50
364;DHT22;173;48.718;9.274;2022-12-15T14:34:38;2.00;99.50
364;DHT22;173;48.718;9.274;2022-12-15T14:37:16;2.00;99.50
364;DHT22;173;48.718;9.274;2022-12-15T14:39:49;2.10;99.50
364;DHT22;173;48.718;9.274;2022-12-15T14:42:26;2.10;99.50
364;DHT22;173;48.718;9.274;2022-12-15T14:44:59;2.00;99.50
364;DHT22;173;48.718;9.274;2022-12-15T14:47:33;2.10;99.50
364;DHT22;173;48.718;9.274;2022-12-15T14:50:08;2.00;99.50
364;DHT22;173;48.718;9.274;2022-12-15T14:52:44;2.10;99.50
364;DHT22;173;48.718;9.274;2022-12-15T15:07:03;1.70;99.50
364;DHT22;173;48.718;9.274;2022-12-15T15:09:40;1.70;99.50
364;DHT22;173;48.718;9.274;2022-12-15T15:12:24;1.70;99.50
364;DHT22;173;48.718;9.274;2022-12-15T15:15:05;1.60;99.50
364;DHT22;173;48.718;9.274;2022-12-15T15:20:29;1.70;99.50
364;DHT22;173;48.718;9.274;2022-12-15T15:28:40;1.50;99.50
364;DHT22;173;48.718;9.274;2022-12-15T15:31:34;1.50;99.50
364;DHT22;173;48.718;9.274;2022-12-15T15:34:08;1.50;99.50
364;DHT22;173;48.718;9.274;2022-12-15T15:36:40;1.40;99.50
364;DHT22;173;48.718;9.274;2022-12-15T15:39:16;1.50;99.50
364;DHT22;173;48.718;9.274;2022-12-15T15:41:49;1.50;99.50
364;DHT22;173;48.718;9.274;2022-12-15T15:44:21;1.50;99.50
364;DHT22;173;48.718;9.274;2022-12-15T15:46:54;1.50;99.50
364;DHT22;173;48.718;9.274;2022-12-15T15:49:26;1.60;99.50
364;DHT22;173;48.718;9.274;2022-12-15T15:51:58;1.60;99.50
364;DHT22;173;48.718;9.274;2022-12-15T15:54:33;1.50;99.50
364;DHT22;173;48.718;9.274;2022-12-15T15:57:07;1.40;99.50
364;DHT22;173;48.718;9.274;2022-12-15T15:59:42;1.20;99.50
364;DHT22;173;48.718;9.274;2022-12-15T16:02:15;1.30;99.50
364;DHT22;173;48.718;9.274;2022-12-15T16:04:47;1.40;99.50
364;DHT22;173;48.718;9.274;2022-12-15T16:07:26;1.40;99.50
364;DHT22;173;48.718;9.274;2022-12-15T16:09:57;1.40;99.50
364;DHT22;173;48.718;9.274;2022-12-15T16:12:39;1.40;99.50
364;DHT22;173;48.718;9.274;2022-12-15T16:15:21;1.30;99.50
364;DHT22;173;48.718;9.274;2022-12-15T16:17:55;1.30;99.50
364;DHT22;173;48.718;9.274;2022-12-15T16:20:28;1.30;99.50
364;DHT22;173;48.718;9.274;2022-12-15T16:23:09;1.40;99.50
364;DHT22;173;48.718;9.274;2022-12-15T16:25:44;1.40;99.50
364;DHT22;173;48.718;9.274;2022-12-15T16:28:21;1.40;99.50
364;DHT22;173;48.718;9.274;2022-12-15T16:30:58;1.30;99.50
364;DHT22;173;48.718;9.274;2022-12-15T16:33:30;1.30;99.50
364;DHT22;173;48.718;9.274;2022-12-15T16:36:07;1.30;99.50
364;DHT22;173;48.718;9.274;2022-12-15T16:38:42;1.30;99.50
364;DHT22;173;48.718;9.274;2022-12-15T16:41:16;1.30;99.50
364;DHT22;173;48.718;9.274;2022-12-15T16:43:50;1.40;99.50
364;DHT22;173;48.718;9.274;2022-12-15T16:46:22;1.40;99.50
364;DHT22;173;48.718;9.274;2022-12-15T16:48:53;1.30;99.50
364;DHT22;173;48.718;9.274;2022-12-15T16:51:35;1.20;99.50
364;DHT22;173;48.718;9.274;2022-12-15T16:54:22;1.20;99.50
364;DHT22;173;48.718;9.274;2022-12-15T16:56:56;1.20;99.50
364;DHT22;173;48.718;9.274;2022-12-15T16:59:30;1.20;99.50
364;DHT22;173;48.718;9.274;2022-12-15T17:02:25;1.10;99.50
364;DHT22;173;48.718;9.274;2022-12-15T17:04:58;1.20;99.50
364;DHT22;173;48.718;9.274;2022-12-15T17:07:30;1.20;99.50
364;DHT22;173;48.718;9.274;2022-12-15T17:10:03;1.30;99.50
364;DHT22;173;48.718;9.274;2022-12-15T17:12:35;1.30;99.50
364;DHT22;173;48.718;9.274;2022-12-15T17:15:20;1.40;99.50
364;DHT22;173;48.718;9.274;2022-12-15T17:17:55;1.30;99.50
364;DHT22;173;48.718;9.274;2022-12-15T17:20:28;1.30;99.50
364;DHT22;173;48.718;9.274;2022-12-15T17:23:02;1.30;99.50
364;DHT22;173;48.718;9.274;2022-12-15T17:25:39;1.20;99.50
364;DHT22;173;48.718;9.274;2022-12-15T17:28:21;1.10;99.50
364;DHT22;173;48.718;9.274;2022-12-15T17:30:52;1.10;99.50
364;DHT22;173;48.718;9.274;2022-12-15T17:33:26;1.10;99.50
364;DHT22;173;48.718;9.274;2022-12-15T17:36:08;1.10;99.50
364;DHT22;173;48.718;9.274;2022-12-15T17:38:40;1.10;99.50
364;DHT22;173;48.718;9.274;2022-12-15T17:41:15;1.10;99.50
364;DHT22;173;48.718;9.274;2022-12-15T17:43:47;1.10;99.50
364;DHT22;173;48.718;9.274;2022-12-15T17:46:23;1.20;99.50
364;DHT22;173;48.718;9.274;2022-12-15T17:48:55;1.20;99.50
364;DHT22;173;48.718;9.274;2022-12-15T17:51:27;1.20;99.50
364;DHT22;173;48.718;9.274;2022-12-15T17:53:59;1.00;99.50
364;DHT22;173;48.718;9.274;2022-12-15T17:56:32;1.00;99.50
364;DHT22;173;48.718;9.274;2022-12-15T17:59:04;0.90;99.50
364;DHT22;173;48.718;9.274;2022-12-15T18:01:42;1.00;99.50
364;DHT22;173;48.718;9.274;2022-12-15T18:04:15;1.10;99.50
364;DHT22;173;48.718;9.274;2022-12-15T18:06:47;1.10;99.50
364;DHT22;173;48.718;9.274;2022-12-15T18:09:24;1.10;99.50
364;DHT22;173;48.718;9.274;2022-12-15T18:11:54;1.10;99.50
364;DHT22;173;48.718;9.274;2022-12-15T18:14:38;1.20;99.50
364;DHT22;173;48.718;9.274;2022-12-15T18:17:11;1.20;99.50
364;DHT22;173;48.718;9.274;2022-12-15T18:19:43;1.10;99.50
364;DHT22;173;48.718;9.274;2022-12-15T18:22:17;1.10;99.50
364;DHT22;173;48.718;9.274;2022-12-15T18:24:52;1.00;99.50
364;DHT22;173;48.718;9.274;2022-12-15T18:27:27;1.10;99.50
364;DHT22;173;48.718;9.274;2022-12-15T18:30:00;0.90;99.50
364;DHT22;173;48.718;9.274;2022-12-15T18:32:32;1.00;99.50
364;DHT22;173;48.718;9.274;2022-12-15T18:35:12;1.00;99.50
364;DHT22;173;48.718;9.274;2022-12-15T18:37:43;1.10;99.50
364;DHT22;173;48.718;9.274;2022-12-15T18:42:10;1.10;99.50
364;DHT22;173;48.718;9.274;2022-12-15T18:44:50;1.10;99.50
364;DHT22;173;48.718;9.274;2022-12-15T18:47:20;1.10;99.50
364;DHT22;173;48.718;9.274;2022-12-15T18:49:54;1.20;99.50
364;DHT22;173;48.718;9.274;2022-12-15T18:52:26;1.20;99.50
364;DHT22;173;48.718;9.274;2022-12-15T18:54:58;1.10;99.50
364;DHT22;173;48.718;9.274;2022-12-15T18:57:34;1.20;99.50
364;DHT22;173;48.718;9.274;2022-12-15T19:02:52;1.00;99.50
364;DHT22;173;48.718;9.274;2022-12-15T19:05:28;0.90;99.50
364;DHT22;173;48.718;9.274;2022-12-15T19:08:20;1.00;99.50
364;DHT22;173;48.718;9.274;2022-12-15T19:13:28;0.90;99.50
364;DHT22;173;48.718;9.274;2022-12-15T19:16:00;1.00;99.50
364;DHT22;173;48.718;9.274;2022-12-15T19:18:33;0.90;99.50
364;DHT22;173;48.718;9.274;2022-12-15T19:21:28;1.00;99.50
364;DHT22;173;48.718;9.274;2022-12-15T19:24:31;0.90;99.50
364;DHT22;173;48.718;9.274;2022-12-15T19:27:20;1.00;99.50
364;DHT22;173;48.718;9.274;2022-12-15T19:29:56;1.10;99.50
364;DHT22;173;48.718;9.274;2022-12-15T19:32:28;1.00;99.50
364;DHT22;173;48.718;9.274;2022-12-15T19:35:00;1.10;99.50
364;DHT22;173;48.718;9.274;2022-12-15T19:37:32;1.10;99.50
364;DHT22;173;48.718;9.274;2022-12-15T19:40:06;1.00;99.50
364;DHT22;173;48.718;9.274;2022-12-15T19:42:49;0.90;99.50
364;DHT22;173;48.718;9.274;2022-12-15T19:45:25;0.90;99.50
364;DHT22;173;48.718;9.274;2022-12-15T19:47:58;1.00;99.50
364;DHT22;173;48.718;9.274;2022-12-15T19:50:29;0.90;99.50
364;DHT22;173;48.718;9.274;2022-12-15T19:53:15;0.80;99.50
364;DHT22;173;48.718;9.274;2022-12-15T19:55:54;0.80;99.50
364;DHT22;173;48.718;9.274;2022-12-15T19:58:34;0.90;99.50
364;DHT22;173;48.718;9.274;2022-12-15T20:01:11;1.00;99.50
364;DHT22;173;48.718;9.274;2022-12-15T20:03:47;1.10;99.50
364;DHT22;173;48.718;9.274;2022-12-15T20:06:25;1.10;99.50